F5GJJ-13 Vourey FR current weather conditions

sailwx.info

Wind from 175 at 2 knots gusting 3

Air temperature 21.7° C
Dewpoint 10.8° C

Last reported at 2019-Sep-21 16:53 UTC.
Time now 2019-Sep-21 17:27 UTC

Location: N 45°19' E 005°32'.
View on Google Maps.

See reports from other nearby stations

  
Tides and Currents Weather Stations Pressure Air Temp Water Temp Dewpoint Dewpoint Depression Visibility Wind Speed Wind Dir Waves Ship Positions
date/time (UTC)wind fromknots sea level pressurealtimeterstation pressurevisibilityair tempwater tempwave heightnotes
2019-Sep-21 16:53 175 2 gusting 3 21.7
2019-Sep-21 16:37 160 0 gusting 1 22.2
2019-Sep-21 16:21 287 0 gusting 1 22.8
2019-Sep-21 16:05 158 1 gusting 3 23.3
2019-Sep-21 16:03 122 1 gusting 3 23.3
2019-Sep-21 15:49 169 2 gusting 4 23.3
2019-Sep-21 15:34 198 2 gusting 2 23.9
2019-Sep-21 15:17 171 1 gusting 1 23.9
2019-Sep-21 15:04 248 2 gusting 2 23.9
2019-Sep-21 14:45 234 5 gusting 5 24.4
2019-Sep-21 14:29 202 4 gusting 6 24.4
2019-Sep-21 14:13 136 1 gusting 2 26.1
2019-Sep-21 13:57 173 1 gusting 3 27.2
2019-Sep-21 13:41 231 2 gusting 3 27.8
2019-Sep-21 13:33 198 2 gusting 6 28.3
2019-Sep-21 13:25 213 1 gusting 3 28.3
2019-Sep-21 13:09 183 2 gusting 5 28.9
2019-Sep-21 13:04 139 2 gusting 3 28.9
2019-Sep-21 12:53 117 2 gusting 5 28.3
2019-Sep-21 12:37 110 2 gusting 3 28.3
2019-Sep-21 12:34 059 3 gusting 5 28.3
2019-Sep-21 12:21 099 2 gusting 1 28.3
2019-Sep-21 12:05 246 3 gusting 3 25.6
2019-Sep-21 11:49 126 1 gusting 3 24.4
2019-Sep-21 11:34 159 2 gusting 5 24.4
2019-Sep-21 11:17 162 1 gusting 2 24.4
2019-Sep-21 11:04 200 1 gusting 3 24.4
2019-Sep-21 10:45 166 2 gusting 3 24.4
2019-Sep-21 10:34 222 2 gusting 3 24.4
2019-Sep-21 10:29 223 1 gusting 2 24.4
2019-Sep-21 10:13 108 1 gusting 2 23.9
2019-Sep-21 09:57 128 3 gusting 4 23.3
2019-Sep-21 09:41 121 3 gusting 5 22.8
2019-Sep-21 09:25 316 1 gusting 3 21.1
2019-Sep-21 09:09 068 3 gusting 5 19.4
2019-Sep-21 08:53 065 3 gusting 7 18.9
2019-Sep-21 08:37 019 2 gusting 2 18.3
2019-Sep-21 08:21 063 1 gusting 6 17.8
2019-Sep-21 08:05 032 2 gusting 4 17.2
2019-Sep-21 07:49 053 4 gusting 5 17.2
2019-Sep-21 07:33 004 2 gusting 5 16.7
2019-Sep-21 07:17 046 1 gusting 3 16.1
2019-Sep-21 07:01 046 2 gusting 5 16.1
2019-Sep-21 06:45 039 1 gusting 6 15.6
2019-Sep-21 06:29 338 0 gusting 0 15.6
2019-Sep-21 06:13 004 1 gusting 2 15.6
2019-Sep-21 06:04 353 1 gusting 1 15.0
2019-Sep-21 05:57 316 0 gusting 1 15.0
2019-Sep-21 05:41 013 0 gusting 2 15.0
2019-Sep-21 05:34 008 0 gusting 1 15.0
2019-Sep-21 05:25 014 0 gusting 1 15.0
2019-Sep-21 05:09 038 1 gusting 3 15.6
2019-Sep-21 04:53 020 0 gusting 1 15.6
2019-Sep-21 04:37 353 0 gusting 1 15.6
2019-Sep-21 04:34 338 1 gusting 2 15.6
2019-Sep-21 04:21 013 0 gusting 1 15.6
2019-Sep-21 04:05 352 0 gusting 1 15.6
2019-Sep-21 04:04 015 0 gusting 0 15.6
2019-Sep-21 03:49 342 15.6
2019-Sep-21 03:34 338 16.1
2019-Sep-21 03:17 338 1 gusting 2 16.1
2019-Sep-21 03:01 338 16.7
2019-Sep-21 02:45 019 0 16.7
2019-Sep-21 02:29 029 0 gusting 1 16.7
2019-Sep-21 02:13 028 16.7
2019-Sep-21 01:57 022 16.7
2019-Sep-21 01:41 341 1 gusting 2 16.7
2019-Sep-21 01:25 338 17.2
2019-Sep-21 01:09 338 1 gusting 1 17.2
2019-Sep-21 00:53 340 0 gusting 1 17.2
2019-Sep-21 00:37 338 1 gusting 1 17.8
2019-Sep-21 00:21 338 17.8
2019-Sep-21 00:05 351 0 gusting 0 17.8
2019-Sep-21 00:04 338 0 gusting 1 17.8
2019-Sep-20 23:49 338 1 gusting 1 17.8
2019-Sep-20 23:33 022 0 18.3
2019-Sep-20 23:17 313 18.3
2019-Sep-20 23:04 026 0 gusting 0 18.9
2019-Sep-20 22:45 036 19.4
2019-Sep-20 22:29 022 0 20.0
2019-Sep-20 22:13 022 0 gusting 1 20.0
2019-Sep-20 22:04 059 20.0
2019-Sep-20 21:57 109 0 20.0
2019-Sep-20 21:41 026 3 gusting 5 20.6
2019-Sep-20 21:34 018 2 gusting 2 20.6
2019-Sep-20 21:25 048 1 gusting 2 20.6
2019-Sep-20 21:09 059 20.6
2019-Sep-20 21:04 053 20.6
2019-Sep-20 20:53 034 0 gusting 1 20.6
2019-Sep-20 20:37 040 21.1
2019-Sep-20 20:21 022 21.1
2019-Sep-20 20:05 021 21.1
2019-Sep-20 19:49 004 0 gusting 0 21.1
2019-Sep-20 19:33 338 21.1
2019-Sep-20 19:17 022 21.1
2019-Sep-20 19:01 338 0 gusting 0 21.1
2019-Sep-20 18:45 022 1 gusting 1 21.7
2019-Sep-20 18:29 010 0 gusting 1 21.7
2019-Sep-20 18:13 338 0 21.7
2019-Sep-20 17:57 338 0 gusting 0 22.2
2019-Sep-20 17:41 338 1 gusting 2 22.8
2019-Sep-20 17:25 338 0 gusting 2 23.3
2019-Sep-20 17:09 338 1 gusting 1 24.4
2019-Sep-20 16:53 132 25.0
2019-Sep-20 16:37 112 0 gusting 1 26.1
2019-Sep-20 16:21 108 2 gusting 3 26.7
2019-Sep-20 16:05 158 0 gusting 1 26.7
2019-Sep-20 15:49 106 1 gusting 2 26.7
2019-Sep-20 15:33 146 2 gusting 3 27.8
2019-Sep-20 15:17 102 2 gusting 3 28.3
2019-Sep-20 15:01 148 2 gusting 3 28.9
2019-Sep-20 14:45 054 1 gusting 1 28.3
2019-Sep-20 14:29 259 0 gusting 1 28.3
2019-Sep-20 14:13 176 3 gusting 4 29.4
2019-Sep-20 13:57 117 3 gusting 3 30.0
2019-Sep-20 13:41 110 3 gusting 5 30.0
2019-Sep-20 13:25 284 2 gusting 3 30.0
2019-Sep-20 13:09 214 3 gusting 5 28.9
2019-Sep-20 12:53 198 2 gusting 3 28.9
2019-Sep-20 12:37 170 1 gusting 2 28.3
2019-Sep-20 12:21 220 2 gusting 3 27.2
2019-Sep-20 12:05 351 1 gusting 2 27.8
2019-Sep-20 11:49 174 1 gusting 3 27.2
2019-Sep-20 11:34 118 2 gusting 4 27.2
2019-Sep-20 11:17 077 2 gusting 3 27.2
2019-Sep-20 11:01 254 1 gusting 2 26.1
2019-Sep-20 10:45 108 3 gusting 3 25.6
2019-Sep-20 10:34 090 3 gusting 4 25.0
2019-Sep-20 10:29 133 3 gusting 4 25.0
2019-Sep-20 10:13 020 1 gusting 3 23.9
2019-Sep-20 09:57 098 3 gusting 5 22.8
2019-Sep-20 09:41 112 3 gusting 5 21.1
2019-Sep-20 09:25 068 3 gusting 4 19.4
2019-Sep-20 09:09 338 1 gusting 1 18.3
2019-Sep-20 08:53 146 4 gusting 5 16.7
2019-Sep-20 08:37 140 3 gusting 5 16.1
2019-Sep-20 08:21 075 2 gusting 3 15.6
2019-Sep-20 08:05 101 3 gusting 4 15.0
2019-Sep-20 08:04 100 3 gusting 3 15.0
2019-Sep-20 07:49 082 2 gusting 3 14.4
2019-Sep-20 07:34 112 1 gusting 2 14.4
2019-Sep-20 07:17 068 5 gusting 8 14.4
2019-Sep-20 07:04 057 5 gusting 8 13.9
2019-Sep-20 06:45 068 2 gusting 3 13.9
2019-Sep-20 06:34 052 4 gusting 6 13.9
2019-Sep-20 06:29 022 3 gusting 6 13.3
2019-Sep-20 06:13 059 5 gusting 8 13.3
2019-Sep-20 06:04 048 4 gusting 5 13.3
2019-Sep-20 05:57 058 5 gusting 7 13.3
2019-Sep-20 05:41 031 3 gusting 8 13.3
2019-Sep-20 05:34 038 4 gusting 7 13.3
2019-Sep-20 05:25 052 5 gusting 9 13.3
2019-Sep-20 05:09 030 4 gusting 6 13.3
2019-Sep-20 05:04 025 2 gusting 6 13.3
2019-Sep-20 04:53 036 5 gusting 6 13.3
2019-Sep-20 04:37 045 6 gusting 11 13.9
2019-Sep-20 04:34 039 3 gusting 8 13.9
2019-Sep-20 04:21 033 5 gusting 5 13.9
2019-Sep-20 04:05 068 8 gusting 10 13.9
2019-Sep-20 04:04 068 5 gusting 11 13.9
2019-Sep-20 03:49 060 5 gusting 8 13.9
2019-Sep-20 03:34 035 2 gusting 6 14.4
2019-Sep-20 03:17 063 4 gusting 8 14.4
2019-Sep-20 03:04 025 3 gusting 8 14.4
2019-Sep-20 02:45 038 3 gusting 6 14.4
2019-Sep-20 02:29 014 2 gusting 2 14.4
2019-Sep-20 02:13 046 2 gusting 5 14.4
2019-Sep-20 02:04 051 3 gusting 7 14.4
2019-Sep-20 01:57 335 3 gusting 2 14.4
2019-Sep-20 01:41 009 2 gusting 2 15.0
2019-Sep-20 01:25 347 2 gusting 3 15.0
2019-Sep-20 01:09 030 2 gusting 5 15.0
2019-Sep-20 01:04 022 2 gusting 2 15.0
2019-Sep-20 00:53 014 1 gusting 1 15.0
2019-Sep-20 00:37 017 3 gusting 3 15.0
2019-Sep-20 00:34 027 1 gusting 6 15.0
2019-Sep-20 00:21 003 1 gusting 2 15.6
2019-Sep-20 00:05 028 1 gusting 6 15.6
2019-Sep-20 00:04 010 1 gusting 1 15.6
2019-Sep-19 23:49 15.6
2019-Sep-19 23:34 349 2 gusting 3 15.6
2019-Sep-19 23:17 022 1 gusting 3 15.6
2019-Sep-19 23:04 016 1 gusting 3 15.6
2019-Sep-19 22:45 019 0 gusting 2 15.6
2019-Sep-19 22:34 043 1 gusting 2 15.0
2019-Sep-19 22:29 018 1 gusting 3 15.0
2019-Sep-19 22:13 345 2 gusting 3 15.0
2019-Sep-19 22:04 342 2 gusting 2 15.0
2019-Sep-19 21:57 351 2 gusting 3 15.0
2019-Sep-19 21:41 348 4 gusting 5 15.0
2019-Sep-19 21:34 15.0
2019-Sep-19 21:25 338 0 gusting 3 15.6
2019-Sep-19 21:09 332 3 gusting 4 15.6
2019-Sep-19 20:53 342 3 gusting 4 15.6
2019-Sep-19 20:37 345 2 gusting 4 16.1
2019-Sep-19 20:34 342 2 gusting 3 16.1
2019-Sep-19 20:21 338 1 gusting 3 16.1
2019-Sep-19 20:05 338 2 gusting 4 16.7
2019-Sep-19 19:49 338 2 gusting 4 16.7
2019-Sep-19 19:34 338 4 gusting 5 16.7
2019-Sep-19 19:17 338 3 gusting 4 16.7
2019-Sep-19 19:01 338 1 gusting 2 17.2
2019-Sep-19 18:45 338 2 gusting 3 17.2
2019-Sep-19 18:29 337 3 gusting 4 17.8
2019-Sep-19 18:13 339 2 gusting 3 17.8
2019-Sep-19 17:57 338 2 gusting 2 18.9
2019-Sep-19 17:41 350 3 gusting 4 19.4
2019-Sep-19 17:34 338 2 gusting 5 20.0
2019-Sep-19 17:25 338 2 gusting 3 20.6
2019-Sep-19 17:09 338 2 gusting 3 21.7